sensor_id;sensor_type;location;lat;lon;timestamp;temperature;humidity
44509;DHT22;30214;52.246;14.408;2023-07-13T00:01:59;18.10;98.70
44509;DHT22;30214;52.246;14.408;2023-07-13T00:04:29;17.90;97.50
44509;DHT22;30214;52.246;14.408;2023-07-13T00:06:57;17.90;98.20
44509;DHT22;30214;52.246;14.408;2023-07-13T00:09:26;17.90;98.50
44509;DHT22;30214;52.246;14.408;2023-07-13T00:11:55;17.90;99.30
44509;DHT22;30214;52.246;14.408;2023-07-13T00:14:23;17.90;99.60
44509;DHT22;30214;52.246;14.408;2023-07-13T00:16:50;17.80;99.90
44509;DHT22;30214;52.246;14.408;2023-07-13T00:19:18;17.80;99.90
44509;DHT22;30214;52.246;14.408;2023-07-13T00:21:53;17.70;99.90
44509;DHT22;30214;52.246;14.408;2023-07-13T00:24:23;17.70;99.90
44509;DHT22;30214;52.246;14.408;2023-07-13T00:26:52;17.80;99.90
44509;DHT22;30214;52.246;14.408;2023-07-13T00:29:19;17.70;99.90
44509;DHT22;30214;52.246;14.408;2023-07-13T00:31:47;17.80;99.90
44509;DHT22;30214;52.246;14.408;2023-07-13T00:34:15;17.80;99.90
44509;DHT22;30214;52.246;14.408;2023-07-13T00:36:46;17.80;99.90
44509;DHT22;30214;52.246;14.408;2023-07-13T00:39:16;17.80;99.90
44509;DHT22;30214;52.246;14.408;2023-07-13T00:41:49;17.80;99.90
44509;DHT22;30214;52.246;14.408;2023-07-13T00:44:20;17.80;99.90
44509;DHT22;30214;52.246;14.408;2023-07-13T00:46:49;17.70;99.90
44509;DHT22;30214;52.246;14.408;2023-07-13T00:49:19;17.70;99.90
44509;DHT22;30214;52.246;14.408;2023-07-13T00:51:51;17.70;99.90
44509;DHT22;30214;52.246;14.408;2023-07-13T00:54:22;17.70;99.90
44509;DHT22;30214;52.246;14.408;2023-07-13T00:56:54;17.70;99.90
44509;DHT22;30214;52.246;14.408;2023-07-13T00:59:26;17.70;99.90
44509;DHT22;30214;52.246;14.408;2023-07-13T01:01:54;17.70;99.90
44509;DHT22;30214;52.246;14.408;2023-07-13T01:04:23;17.70;99.90
44509;DHT22;30214;52.246;14.408;2023-07-13T01:06:52;17.60;99.90
44509;DHT22;30214;52.246;14.408;2023-07-13T01:09:21;17.70;99.90
44509;DHT22;30214;52.246;14.408;2023-07-13T01:11:52;17.80;99.90
44509;DHT22;30214;52.246;14.408;2023-07-13T01:14:21;17.80;99.90
44509;DHT22;30214;52.246;14.408;2023-07-13T01:16:51;17.80;99.90
44509;DHT22;30214;52.246;14.408;2023-07-13T01:19:29;17.90;99.90
44509;DHT22;30214;52.246;14.408;2023-07-13T01:22:04;17.90;99.90
44509;DHT22;30214;52.246;14.408;2023-07-13T01:24:35;17.80;99.90
44509;DHT22;30214;52.246;14.408;2023-07-13T01:27:03;17.90;99.90
44509;DHT22;30214;52.246;14.408;2023-07-13T01:29:32;17.90;99.90
44509;DHT22;30214;52.246;14.408;2023-07-13T01:32:00;17.90;99.90
44509;DHT22;30214;52.246;14.408;2023-07-13T01:34:30;17.80;99.90
44509;DHT22;30214;52.246;14.408;2023-07-13T01:36:59;17.70;99.90
44509;DHT22;30214;52.246;14.408;2023-07-13T01:39:29;17.70;99.90
44509;DHT22;30214;52.246;14.408;2023-07-13T01:41:57;17.60;99.90
44509;DHT22;30214;52.246;14.408;2023-07-13T01:44:24;17.60;99.90
44509;DHT22;30214;52.246;14.408;2023-07-13T01:46:53;17.70;99.90
44509;DHT22;30214;52.246;14.408;2023-07-13T01:49:20;17.70;99.90
44509;DHT22;30214;52.246;14.408;2023-07-13T01:51:49;17.80;99.90
44509;DHT22;30214;52.246;14.408;2023-07-13T01:54:20;17.70;99.90
44509;DHT22;30214;52.246;14.408;2023-07-13T01:56:51;17.70;99.90
44509;DHT22;30214;52.246;14.408;2023-07-13T01:59:21;17.70;99.90
44509;DHT22;30214;52.246;14.408;2023-07-13T02:01:51;17.70;99.90
44509;DHT22;30214;52.246;14.408;2023-07-13T02:04:20;17.60;99.90
44509;DHT22;30214;52.246;14.408;2023-07-13T02:06:48;17.70;99.90
44509;DHT22;30214;52.246;14.408;2023-07-13T02:09:15;17.60;99.90
44509;DHT22;30214;52.246;14.408;2023-07-13T02:11:43;17.50;99.90
44509;DHT22;30214;52.246;14.408;2023-07-13T02:14:15;17.40;99.90
44509;DHT22;30214;52.246;14.408;2023-07-13T02:16:46;17.30;99.90
44509;DHT22;30214;52.246;14.408;2023-07-13T02:19:14;17.10;99.90
44509;DHT22;30214;52.246;14.408;2023-07-13T02:21:46;17.10;99.90
44509;DHT22;30214;52.246;14.408;2023-07-13T02:24:13;17.00;99.90
44509;DHT22;30214;52.246;14.408;2023-07-13T02:26:49;16.80;99.90
44509;DHT22;30214;52.246;14.408;2023-07-13T02:29:25;16.70;99.90
44509;DHT22;30214;52.246;14.408;2023-07-13T02:31:53;16.80;99.90
44509;DHT22;30214;52.246;14.408;2023-07-13T02:34:48;16.80;99.90
44509;DHT22;30214;52.246;14.408;2023-07-13T02:37:15;16.80;99.90
44509;DHT22;30214;52.246;14.408;2023-07-13T02:39:42;16.90;99.90
44509;DHT22;30214;52.246;14.408;2023-07-13T02:42:09;17.00;99.90
44509;DHT22;30214;52.246;14.408;2023-07-13T02:44:41;16.90;99.90
44509;DHT22;30214;52.246;14.408;2023-07-13T02:47:09;16.90;99.90
44509;DHT22;30214;52.246;14.408;2023-07-13T02:49:38;16.90;99.90
44509;DHT22;30214;52.246;14.408;2023-07-13T02:52:06;16.90;99.90
44509;DHT22;30214;52.246;14.408;2023-07-13T02:54:33;16.90;99.90
44509;DHT22;30214;52.246;14.408;2023-07-13T02:57:01;16.90;99.90
44509;DHT22;30214;52.246;14.408;2023-07-13T02:59:31;16.90;99.90
44509;DHT22;30214;52.246;14.408;2023-07-13T03:02:01;16.90;99.90
44509;DHT22;30214;52.246;14.408;2023-07-13T03:04:28;16.90;99.90
44509;DHT22;30214;52.246;14.408;2023-07-13T03:06:55;16.90;99.90
44509;DHT22;30214;52.246;14.408;2023-07-13T03:09:34;16.90;99.90
44509;DHT22;30214;52.246;14.408;2023-07-13T03:12:03;16.90;99.90
44509;DHT22;30214;52.246;14.408;2023-07-13T03:14:32;16.60;99.90
44509;DHT22;30214;52.246;14.408;2023-07-13T03:17:05;16.40;99.90
44509;DHT22;30214;52.246;14.408;2023-07-13T03:19:34;16.40;99.90
44509;DHT22;30214;52.246;14.408;2023-07-13T03:22:07;16.50;99.90
44509;DHT22;30214;52.246;14.408;2023-07-13T03:24:38;16.60;99.90
44509;DHT22;30214;52.246;14.408;2023-07-13T03:27:09;16.50;99.90
44509;DHT22;30214;52.246;14.408;2023-07-13T03:29:40;16.50;99.90
44509;DHT22;30214;52.246;14.408;2023-07-13T03:32:09;16.40;99.90
44509;DHT22;30214;52.246;14.408;2023-07-13T03:34:40;16.50;99.90
44509;DHT22;30214;52.246;14.408;2023-07-13T03:37:10;16.60;99.90
44509;DHT22;30214;52.246;14.408;2023-07-13T03:39:40;16.70;99.90
44509;DHT22;30214;52.246;14.408;2023-07-13T03:42:13;16.90;99.90
44509;DHT22;30214;52.246;14.408;2023-07-13T03:44:43;17.20;99.90
44509;DHT22;30214;52.246;14.408;2023-07-13T03:47:16;17.50;99.90
44509;DHT22;30214;52.246;14.408;2023-07-13T03:49:44;17.80;99.90
44509;DHT22;30214;52.246;14.408;2023-07-13T03:52:13;17.90;99.90
44509;DHT22;30214;52.246;14.408;2023-07-13T03:54:41;18.00;99.90
44509;DHT22;30214;52.246;14.408;2023-07-13T03:57:12;18.20;99.90
44509;DHT22;30214;52.246;14.408;2023-07-13T03:59:39;18.20;99.90
44509;DHT22;30214;52.246;14.408;2023-07-13T04:02:09;18.10;99.90
44509;DHT22;30214;52.246;14.408;2023-07-13T04:04:39;18.00;99.90
44509;DHT22;30214;52.246;14.408;2023-07-13T04:07:07;17.90;99.90
44509;DHT22;30214;52.246;14.408;2023-07-13T04:09:37;17.80;99.90
44509;DHT22;30214;52.246;14.408;2023-07-13T04:12:05;17.70;99.90
44509;DHT22;30214;52.246;14.408;2023-07-13T04:14:32;17.70;99.90
44509;DHT22;30214;52.246;14.408;2023-07-13T04:16:59;17.70;99.90
44509;DHT22;30214;52.246;14.408;2023-07-13T04:19:27;17.60;99.90
44509;DHT22;30214;52.246;14.408;2023-07-13T04:21:55;17.60;99.90
44509;DHT22;30214;52.246;14.408;2023-07-13T04:24:22;17.50;99.90
44509;DHT22;30214;52.246;14.408;2023-07-13T04:26:49;17.30;99.90
44509;DHT22;30214;52.246;14.408;2023-07-13T04:29:16;17.20;99.90
44509;DHT22;30214;52.246;14.408;2023-07-13T04:31:43;17.10;99.90
44509;DHT22;30214;52.246;14.408;2023-07-13T04:34:10;17.10;99.90
44509;DHT22;30214;52.246;14.408;2023-07-13T04:36:36;17.20;99.90
44509;DHT22;30214;52.246;14.408;2023-07-13T04:39:05;17.20;99.90
44509;DHT22;30214;52.246;14.408;2023-07-13T04:41:36;17.00;99.90
44509;DHT22;30214;52.246;14.408;2023-07-13T04:44:03;17.20;99.90
44509;DHT22;30214;52.246;14.408;2023-07-13T04:46:30;17.60;99.90
44509;DHT22;30214;52.246;14.408;2023-07-13T04:48:57;18.10;99.90
44509;DHT22;30214;52.246;14.408;2023-07-13T04:51:25;18.60;99.90
44509;DHT22;30214;52.246;14.408;2023-07-13T04:53:52;19.30;99.90
44509;DHT22;30214;52.246;14.408;2023-07-13T04:56:20;19.90;99.90
44509;DHT22;30214;52.246;14.408;2023-07-13T04:58:47;20.40;99.90
44509;DHT22;30214;52.246;14.408;2023-07-13T05:01:14;20.70;99.90
44509;DHT22;30214;52.246;14.408;2023-07-13T05:03:41;20.70;99.90
44509;DHT22;30214;52.246;14.408;2023-07-13T05:06:09;20.60;99.90
44509;DHT22;30214;52.246;14.408;2023-07-13T05:08:36;20.40;99.90
44509;DHT22;30214;52.246;14.408;2023-07-13T05:11:04;20.00;99.90
44509;DHT22;30214;52.246;14.408;2023-07-13T05:13:33;19.80;99.90
44509;DHT22;30214;52.246;14.408;2023-07-13T05:16:03;19.60;99.90
44509;DHT22;30214;52.246;14.408;2023-07-13T05:18:32;19.50;99.90
44509;DHT22;30214;52.246;14.408;2023-07-13T05:21:01;19.50;99.90
44509;DHT22;30214;52.246;14.408;2023-07-13T05:23:29;19.60;99.90
44509;DHT22;30214;52.246;14.408;2023-07-13T05:25:56;19.50;99.90
44509;DHT22;30214;52.246;14.408;2023-07-13T05:28:23;19.60;99.90
44509;DHT22;30214;52.246;14.408;2023-07-13T05:30:51;19.50;99.90
44509;DHT22;30214;52.246;14.408;2023-07-13T05:33:20;19.60;99.90
44509;DHT22;30214;52.246;14.408;2023-07-13T05:35:47;19.60;99.90
44509;DHT22;30214;52.246;14.408;2023-07-13T05:38:14;19.60;99.90
44509;DHT22;30214;52.246;14.408;2023-07-13T05:40:42;19.50;99.90
44509;DHT22;30214;52.246;14.408;2023-07-13T05:43:10;19.60;99.90
44509;DHT22;30214;52.246;14.408;2023-07-13T05:45:37;20.10;99.90
44509;DHT22;30214;52.246;14.408;2023-07-13T05:48:05;20.40;99.90
44509;DHT22;30214;52.246;14.408;2023-07-13T05:50:32;20.60;99.90
44509;DHT22;30214;52.246;14.408;2023-07-13T05:52:59;20.70;99.90
44509;DHT22;30214;52.246;14.408;2023-07-13T05:55:26;20.70;99.90
44509;DHT22;30214;52.246;14.408;2023-07-13T05:57:53;20.70;99.90
44509;DHT22;30214;52.246;14.408;2023-07-13T06:00:20;20.50;99.90
44509;DHT22;30214;52.246;14.408;2023-07-13T06:02:47;20.40;99.90
44509;DHT22;30214;52.246;14.408;2023-07-13T06:05:15;20.80;99.90
44509;DHT22;30214;52.246;14.408;2023-07-13T06:07:42;21.40;99.90
44509;DHT22;30214;52.246;14.408;2023-07-13T06:10:10;22.00;99.90
44509;DHT22;30214;52.246;14.408;2023-07-13T06:12:37;22.60;99.30
44509;DHT22;30214;52.246;14.408;2023-07-13T06:15:04;23.20;98.20
44509;DHT22;30214;52.246;14.408;2023-07-13T06:17:31;23.60;97.50
44509;DHT22;30214;52.246;14.408;2023-07-13T06:19:58;24.00;95.50
44509;DHT22;30214;52.246;14.408;2023-07-13T06:22:27;24.40;93.00
44509;DHT22;30214;52.246;14.408;2023-07-13T06:24:54;24.90;91.60
44509;DHT22;30214;52.246;14.408;2023-07-13T06:27:20;25.00;91.10
44509;DHT22;30214;52.246;14.408;2023-07-13T06:29:47;25.10;88.40
44509;DHT22;30214;52.246;14.408;2023-07-13T06:32:14;25.30;89.70
44509;DHT22;30214;52.246;14.408;2023-07-13T06:34:41;25.60;86.50
44509;DHT22;30214;52.246;14.408;2023-07-13T06:37:09;25.90;85.00
44509;DHT22;30214;52.246;14.408;2023-07-13T06:39:37;26.20;82.20
44509;DHT22;30214;52.246;14.408;2023-07-13T06:42:06;26.20;79.20
44509;DHT22;30214;52.246;14.408;2023-07-13T06:44:33;26.10;79.40
44509;DHT22;30214;52.246;14.408;2023-07-13T06:46:59;26.20;80.00
44509;DHT22;30214;52.246;14.408;2023-07-13T06:49:26;26.30;76.20
44509;DHT22;30214;52.246;14.408;2023-07-13T06:51:53;26.50;74.20
44509;DHT22;30214;52.246;14.408;2023-07-13T06:54:20;26.70;73.90
44509;DHT22;30214;52.246;14.408;2023-07-13T06:56:49;26.80;73.10
44509;DHT22;30214;52.246;14.408;2023-07-13T06:59:15;27.10;72.30
44509;DHT22;30214;52.246;14.408;2023-07-13T07:01:43;27.00;71.10
44509;DHT22;30214;52.246;14.408;2023-07-13T07:04:10;27.00;71.60
44509;DHT22;30214;52.246;14.408;2023-07-13T07:06:36;27.10;70.50
44509;DHT22;30214;52.246;14.408;2023-07-13T07:09:04;27.30;69.20
44509;DHT22;30214;52.246;14.408;2023-07-13T07:11:30;27.60;69.90
44509;DHT22;30214;52.246;14.408;2023-07-13T07:13:59;27.50;72.30
44509;DHT22;30214;52.246;14.408;2023-07-13T07:16:25;27.40;68.10
44509;DHT22;30214;52.246;14.408;2023-07-13T07:18:52;27.40;69.50
44509;DHT22;30214;52.246;14.408;2023-07-13T07:21:19;27.50;68.50
44509;DHT22;30214;52.246;14.408;2023-07-13T07:23:48;27.80;69.60
44509;DHT22;30214;52.246;14.408;2023-07-13T07:26:15;28.00;67.10
44509;DHT22;30214;52.246;14.408;2023-07-13T07:28:42;27.80;69.80
44509;DHT22;30214;52.246;14.408;2023-07-13T07:31:10;27.70;67.80
44509;DHT22;30214;52.246;14.408;2023-07-13T07:33:37;27.20;70.30
44509;DHT22;30214;52.246;14.408;2023-07-13T07:36:05;26.80;70.80
44509;DHT22;30214;52.246;14.408;2023-07-13T07:38:32;26.90;70.50
44509;DHT22;30214;52.246;14.408;2023-07-13T07:41:02;27.20;72.40
44509;DHT22;30214;52.246;14.408;2023-07-13T07:43:29;27.40;68.60
44509;DHT22;30214;52.246;14.408;2023-07-13T07:45:57;27.80;69.50
44509;DHT22;30214;52.246;14.408;2023-07-13T07:48:25;27.80;67.20
44509;DHT22;30214;52.246;14.408;2023-07-13T07:50:52;27.80;68.00
44509;DHT22;30214;52.246;14.408;2023-07-13T07:53:19;28.00;66.20
44509;DHT22;30214;52.246;14.408;2023-07-13T07:55:46;28.10;66.00
44509;DHT22;30214;52.246;14.408;2023-07-13T07:58:15;28.20;66.50
44509;DHT22;30214;52.246;14.408;2023-07-13T08:00:42;28.30;68.30
44509;DHT22;30214;52.246;14.408;2023-07-13T08:03:10;28.10;66.20
44509;DHT22;30214;52.246;14.408;2023-07-13T08:05:38;28.00;66.60
44509;DHT22;30214;52.246;14.408;2023-07-13T08:08:05;28.00;67.10
44509;DHT22;30214;52.246;14.408;2023-07-13T08:10:32;27.80;64.90
44509;DHT22;30214;52.246;14.408;2023-07-13T08:12:59;27.90;66.20
44509;DHT22;30214;52.246;14.408;2023-07-13T08:15:26;28.00;65.20
44509;DHT22;30214;52.246;14.408;2023-07-13T08:17:53;28.10;65.50
44509;DHT22;30214;52.246;14.408;2023-07-13T08:20:20;28.10;63.90
44509;DHT22;30214;52.246;14.408;2023-07-13T08:22:49;28.00;64.30
44509;DHT22;30214;52.246;14.408;2023-07-13T08:25:16;28.00;65.10
44509;DHT22;30214;52.246;14.408;2023-07-13T08:27:43;28.20;64.50
44509;DHT22;30214;52.246;14.408;2023-07-13T08:30:10;28.30;64.60
44509;DHT22;30214;52.246;14.408;2023-07-13T08:32:38;28.40;64.20
44509;DHT22;30214;52.246;14.408;2023-07-13T08:35:06;28.50;62.90
44509;DHT22;30214;52.246;14.408;2023-07-13T08:37:33;28.70;61.60
44509;DHT22;30214;52.246;14.408;2023-07-13T08:40:01;28.70;63.10
44509;DHT22;30214;52.246;14.408;2023-07-13T08:42:37;28.80;60.80
44509;DHT22;30214;52.246;14.408;2023-07-13T08:45:14;28.90;60.50
44509;DHT22;30214;52.246;14.408;2023-07-13T08:47:50;29.00;60.70
44509;DHT22;30214;52.246;14.408;2023-07-13T08:50:27;29.10;61.70
44509;DHT22;30214;52.246;14.408;2023-07-13T08:52:55;28.70;61.00
44509;DHT22;30214;52.246;14.408;2023-07-13T08:55:28;28.00;62.10
44509;DHT22;30214;52.246;14.408;2023-07-13T08:58:01;27.40;63.80
44509;DHT22;30214;52.246;14.408;2023-07-13T09:00:37;27.10;62.90
44509;DHT22;30214;52.246;14.408;2023-07-13T09:03:16;27.20;65.40
44509;DHT22;30214;52.246;14.408;2023-07-13T09:05:49;27.30;64.90
44509;DHT22;30214;52.246;14.408;2023-07-13T09:08:36;26.90;64.30
44509;DHT22;30214;52.246;14.408;2023-07-13T09:11:16;26.90;65.10
44509;DHT22;30214;52.246;14.408;2023-07-13T09:13:57;26.30;63.60
44509;DHT22;30214;52.246;14.408;2023-07-13T09:16:25;26.10;64.00
44509;DHT22;30214;52.246;14.408;2023-07-13T09:18:59;26.00;63.30
44509;DHT22;30214;52.246;14.408;2023-07-13T09:21:31;26.30;64.30
44509;DHT22;30214;52.246;14.408;2023-07-13T09:24:06;26.70;60.20
44509;DHT22;30214;52.246;14.408;2023-07-13T09:26:41;27.10;60.50
44509;DHT22;30214;52.246;14.408;2023-07-13T09:29:23;27.30;60.00
44509;DHT22;30214;52.246;14.408;2023-07-13T09:31:58;27.20;60.80
44509;DHT22;30214;52.246;14.408;2023-07-13T09:34:28;27.10;59.60
44509;DHT22;30214;52.246;14.408;2023-07-13T09:36:57;27.20;61.40
44509;DHT22;30214;52.246;14.408;2023-07-13T09:39:26;27.30;60.20
44509;DHT22;30214;52.246;14.408;2023-07-13T09:42:01;27.80;59.00
44509;DHT22;30214;52.246;14.408;2023-07-13T09:44:34;28.30;59.40
44509;DHT22;30214;52.246;14.408;2023-07-13T09:47:02;28.40;58.90
44509;DHT22;30214;52.246;14.408;2023-07-13T09:49:33;28.30;57.60
44509;DHT22;30214;52.246;14.408;2023-07-13T09:52:03;27.70;59.60
44509;DHT22;30214;52.246;14.408;2023-07-13T09:54:34;27.20;60.70
44509;DHT22;30214;52.246;14.408;2023-07-13T09:57:13;27.00;60.30
44509;DHT22;30214;52.246;14.408;2023-07-13T09:59:44;27.40;61.50
44509;DHT22;30214;52.246;14.408;2023-07-13T10:02:31;27.90;59.10
44509;DHT22;30214;52.246;14.408;2023-07-13T10:05:01;28.00;58.80
44509;DHT22;30214;52.246;14.408;2023-07-13T10:07:30;28.00;58.60
44509;DHT22;30214;52.246;14.408;2023-07-13T10:10:00;27.80;59.50
44509;DHT22;30214;52.246;14.408;2023-07-13T10:12:35;27.70;60.00
44509;DHT22;30214;52.246;14.408;2023-07-13T10:15:07;27.50;59.70
44509;DHT22;30214;52.246;14.408;2023-07-13T10:17:40;27.50;60.20
44509;DHT22;30214;52.246;14.408;2023-07-13T10:20:08;27.50;59.70
44509;DHT22;30214;52.246;14.408;2023-07-13T10:22:44;27.60;60.20
44509;DHT22;30214;52.246;14.408;2023-07-13T10:25:17;27.30;60.10
44509;DHT22;30214;52.246;14.408;2023-07-13T10:27:46;26.70;60.70
44509;DHT22;30214;52.246;14.408;2023-07-13T10:30:19;26.40;62.00
44509;DHT22;30214;52.246;14.408;2023-07-13T10:32:48;25.90;61.00
44509;DHT22;30214;52.246;14.408;2023-07-13T10:35:18;25.40;61.90
44509;DHT22;30214;52.246;14.408;2023-07-13T10:37:51;25.30;62.70
44509;DHT22;30214;52.246;14.408;2023-07-13T10:40:23;25.30;62.70
44509;DHT22;30214;52.246;14.408;2023-07-13T10:42:58;25.40;63.00
44509;DHT22;30214;52.246;14.408;2023-07-13T10:45:33;25.30;62.10
44509;DHT22;30214;52.246;14.408;2023-07-13T10:48:04;25.30;63.30
44509;DHT22;30214;52.246;14.408;2023-07-13T10:50:34;25.30;61.00
44509;DHT22;30214;52.246;14.408;2023-07-13T10:53:17;25.30;62.00
44509;DHT22;30214;52.246;14.408;2023-07-13T10:56:02;25.40;62.00
44509;DHT22;30214;52.246;14.408;2023-07-13T10:58:36;25.80;62.00
44509;DHT22;30214;52.246;14.408;2023-07-13T11:01:08;26.40;61.80
44509;DHT22;30214;52.246;14.408;2023-07-13T11:03:49;26.90;59.70
44509;DHT22;30214;52.246;14.408;2023-07-13T11:06:37;27.40;59.90
44509;DHT22;30214;52.246;14.408;2023-07-13T11:09:30;27.40;58.30
44509;DHT22;30214;52.246;14.408;2023-07-13T11:12:00;26.80;60.70
44509;DHT22;30214;52.246;14.408;2023-07-13T11:14:41;26.80;60.70
44509;DHT22;30214;52.246;14.408;2023-07-13T11:17:36;26.50;60.40
44509;DHT22;30214;52.246;14.408;2023-07-13T11:23:30;26.20;64.10
44509;DHT22;30214;52.246;14.408;2023-07-13T11:26:43;26.10;61.90
44509;DHT22;30214;52.246;14.408;2023-07-13T11:29:32;26.00;61.80
44509;DHT22;30214;52.246;14.408;2023-07-13T11:32:29;26.30;61.50
44509;DHT22;30214;52.246;14.408;2023-07-13T11:34:58;26.80;59.50
44509;DHT22;30214;52.246;14.408;2023-07-13T11:37:30;27.30;58.80
44509;DHT22;30214;52.246;14.408;2023-07-13T11:40:00;27.10;60.10
44509;DHT22;30214;52.246;14.408;2023-07-13T11:42:28;26.80;59.70
44509;DHT22;30214;52.246;14.408;2023-07-13T11:44:59;26.40;60.30
44509;DHT22;30214;52.246;14.408;2023-07-13T11:47:30;26.20;62.30
44509;DHT22;30214;52.246;14.408;2023-07-13T11:49:59;26.20;62.70
44509;DHT22;30214;52.246;14.408;2023-07-13T11:52:35;26.30;62.30
44509;DHT22;30214;52.246;14.408;2023-07-13T11:55:14;26.30;63.80
44509;DHT22;30214;52.246;14.408;2023-07-13T11:57:47;26.40;62.90
44509;DHT22;30214;52.246;14.408;2023-07-13T12:00:23;26.40;63.10
44509;DHT22;30214;52.246;14.408;2023-07-13T12:02:56;26.50;63.30
44509;DHT22;30214;52.246;14.408;2023-07-13T12:05:25;26.40;65.10
44509;DHT22;30214;52.246;14.408;2023-07-13T12:07:53;26.50;63.90
44509;DHT22;30214;52.246;14.408;2023-07-13T12:10:24;26.50;64.70
44509;DHT22;30214;52.246;14.408;2023-07-13T12:12:55;26.70;64.30
44509;DHT22;30214;52.246;14.408;2023-07-13T12:15:28;26.70;62.20
44509;DHT22;30214;52.246;14.408;2023-07-13T12:17:59;26.70;63.30
44509;DHT22;30214;52.246;14.408;2023-07-13T12:20:28;26.80;62.60
44509;DHT22;30214;52.246;14.408;2023-07-13T12:22:58;27.20;62.00
44509;DHT22;30214;52.246;14.408;2023-07-13T12:25:26;27.40;61.50
44509;DHT22;30214;52.246;14.408;2023-07-13T12:27:53;27.50;59.00
44509;DHT22;30214;52.246;14.408;2023-07-13T12:30:25;27.40;61.30
44509;DHT22;30214;52.246;14.408;2023-07-13T12:33:01;27.50;60.30
44509;DHT22;30214;52.246;14.408;2023-07-13T12:37:59;27.70;60.50
44509;DHT22;30214;52.246;14.408;2023-07-13T12:40:33;27.90;61.30
44509;DHT22;30214;52.246;14.408;2023-07-13T12:43:03;27.90;59.40
44509;DHT22;30214;52.246;14.408;2023-07-13T12:45:32;27.90;60.00
44509;DHT22;30214;52.246;14.408;2023-07-13T12:48:06;28.10;60.10
44509;DHT22;30214;52.246;14.408;2023-07-13T12:50:41;28.30;61.50
44509;DHT22;30214;52.246;14.408;2023-07-13T12:53:12;28.10;59.80
44509;DHT22;30214;52.246;14.408;2023-07-13T12:55:41;27.60;60.00
44509;DHT22;30214;52.246;14.408;2023-07-13T12:58:13;27.40;59.20
44509;DHT22;30214;52.246;14.408;2023-07-13T13:00:48;27.40;57.90
44509;DHT22;30214;52.246;14.408;2023-07-13T13:03:26;27.50;57.50
44509;DHT22;30214;52.246;14.408;2023-07-13T13:05:58;27.60;58.40
44509;DHT22;30214;52.246;14.408;2023-07-13T13:08:30;27.60;57.90
44509;DHT22;30214;52.246;14.408;2023-07-13T13:10:57;27.60;56.60
44509;DHT22;30214;52.246;14.408;2023-07-13T13:13:24;27.70;58.10
44509;DHT22;30214;52.246;14.408;2023-07-13T13:15:51;27.70;58.00
44509;DHT22;30214;52.246;14.408;2023-07-13T13:18:21;27.70;59.80
44509;DHT22;30214;52.246;14.408;2023-07-13T13:20:49;27.40;58.30
44509;DHT22;30214;52.246;14.408;2023-07-13T13:23:19;27.50;58.50
44509;DHT22;30214;52.246;14.408;2023-07-13T13:25:50;27.50;59.00
44509;DHT22;30214;52.246;14.408;2023-07-13T13:28:20;27.40;57.70
44509;DHT22;30214;52.246;14.408;2023-07-13T13:30:49;27.40;58.80
44509;DHT22;30214;52.246;14.408;2023-07-13T13:33:18;27.50;62.00
44509;DHT22;30214;52.246;14.408;2023-07-13T13:35:47;27.80;57.20
44509;DHT22;30214;52.246;14.408;2023-07-13T13:38:17;28.00;58.30
44509;DHT22;30214;52.246;14.408;2023-07-13T13:40:45;28.20;56.00
44509;DHT22;30214;52.246;14.408;2023-07-13T13:43:16;28.30;57.60
44509;DHT22;30214;52.246;14.408;2023-07-13T13:45:43;28.30;58.80
44509;DHT22;30214;52.246;14.408;2023-07-13T13:48:15;28.20;55.50
44509;DHT22;30214;52.246;14.408;2023-07-13T13:50:42;28.20;56.40
44509;DHT22;30214;52.246;14.408;2023-07-13T13:53:11;28.10;54.50
44509;DHT22;30214;52.246;14.408;2023-07-13T13:55:39;27.80;55.70
44509;DHT22;30214;52.246;14.408;2023-07-13T13:58:08;27.30;55.50
44509;DHT22;30214;52.246;14.408;2023-07-13T14:00:37;27.20;57.30
44509;DHT22;30214;52.246;14.408;2023-07-13T14:03:05;27.10;56.30
44509;DHT22;30214;52.246;14.408;2023-07-13T14:05:35;27.20;57.30
44509;DHT22;30214;52.246;14.408;2023-07-13T14:08:02;27.10;57.80
44509;DHT22;30214;52.246;14.408;2023-07-13T14:10:30;27.20;57.40
44509;DHT22;30214;52.246;14.408;2023-07-13T14:12:57;27.50;55.80
44509;DHT22;30214;52.246;14.408;2023-07-13T14:15:26;27.60;56.90
44509;DHT22;30214;52.246;14.408;2023-07-13T14:17:54;27.70;55.40
44509;DHT22;30214;52.246;14.408;2023-07-13T14:20:23;27.80;56.20
44509;DHT22;30214;52.246;14.408;2023-07-13T14:22:51;27.90;55.50
44509;DHT22;30214;52.246;14.408;2023-07-13T14:25:20;28.10;54.50
44509;DHT22;30214;52.246;14.408;2023-07-13T14:27:58;27.80;56.20
44509;DHT22;30214;52.246;14.408;2023-07-13T14:30:30;27.50;55.60
44509;DHT22;30214;52.246;14.408;2023-07-13T14:32:57;27.40;55.10
44509;DHT22;30214;52.246;14.408;2023-07-13T14:35:24;27.30;55.70
44509;DHT22;30214;52.246;14.408;2023-07-13T14:37:51;27.20;55.70
44509;DHT22;30214;52.246;14.408;2023-07-13T14:40:21;26.90;56.40
44509;DHT22;30214;52.246;14.408;2023-07-13T14:42:51;26.80;56.40
44509;DHT22;30214;52.246;14.408;2023-07-13T14:45:19;27.00;58.80
44509;DHT22;30214;52.246;14.408;2023-07-13T14:47:47;27.30;55.80
44509;DHT22;30214;52.246;14.408;2023-07-13T14:50:16;27.60;55.20
44509;DHT22;30214;52.246;14.408;2023-07-13T14:52:44;27.70;54.60
44509;DHT22;30214;52.246;14.408;2023-07-13T14:55:19;27.70;54.30
44509;DHT22;30214;52.246;14.408;2023-07-13T14:58:12;27.70;55.00
44509;DHT22;30214;52.246;14.408;2023-07-13T15:00:41;27.40;56.40
44509;DHT22;30214;52.246;14.408;2023-07-13T15:03:19;27.40;55.10
44509;DHT22;30214;52.246;14.408;2023-07-13T15:05:47;27.50;54.60
44509;DHT22;30214;52.246;14.408;2023-07-13T15:08:15;27.70;55.10
44509;DHT22;30214;52.246;14.408;2023-07-13T15:10:42;27.70;54.60
44509;DHT22;30214;52.246;14.408;2023-07-13T15:13:16;27.70;54.90
44509;DHT22;30214;52.246;14.408;2023-07-13T15:15:46;27.40;55.70
44509;DHT22;30214;52.246;14.408;2023-07-13T15:18:14;27.30;56.60
44509;DHT22;30214;52.246;14.408;2023-07-13T15:20:44;27.50;56.00
44509;DHT22;30214;52.246;14.408;2023-07-13T15:23:12;27.30;56.10
44509;DHT22;30214;52.246;14.408;2023-07-13T15:25:42;27.00;55.10
44509;DHT22;30214;52.246;14.408;2023-07-13T15:28:09;26.70;56.00
44509;DHT22;30214;52.246;14.408;2023-07-13T15:30:42;26.60;56.40
44509;DHT22;30214;52.246;14.408;2023-07-13T15:33:12;26.50;56.30
44509;DHT22;30214;52.246;14.408;2023-07-13T15:35:43;26.50;57.60
44509;DHT22;30214;52.246;14.408;2023-07-13T15:38:15;26.80;57.80
44509;DHT22;30214;52.246;14.408;2023-07-13T15:40:43;27.10;56.20